createdAt,value
2023-01-04T00:01:23.880Z,9.23
2023-01-04T00:03:51.754Z,9.45
2023-01-04T00:06:19.797Z,8.70
2023-01-04T00:08:47.321Z,8.63
2023-01-04T00:13:49.091Z,8.20
2023-01-04T00:16:23.270Z,8.00
2023-01-04T00:18:53.017Z,8.55
2023-01-04T00:21:27.562Z,9.02
2023-01-04T00:23:58.478Z,10.60
2023-01-04T00:26:32.885Z,10.23
2023-01-04T00:29:05.683Z,11.25
2023-01-04T00:31:35.987Z,11.52
2023-01-04T00:34:05.717Z,13.48
2023-01-04T00:36:35.203Z,13.98
2023-01-04T00:39:10.557Z,12.90
2023-01-04T00:42:00.314Z,14.70
2023-01-04T00:44:29.194Z,14.23
2023-01-04T00:46:56.930Z,13.65
2023-01-04T00:49:24.728Z,12.77
2023-01-04T00:51:52.140Z,13.20
2023-01-04T00:56:47.827Z,13.20
2023-01-04T00:59:19.635Z,13.25
2023-01-04T01:01:48.445Z,13.45
2023-01-04T01:04:19.265Z,14.43
2023-01-04T01:06:47.182Z,13.55
2023-01-04T01:09:15.344Z,12.43
2023-01-04T01:11:43.093Z,10.18
2023-01-04T01:14:19.705Z,11.02
2023-01-04T01:16:56.990Z,11.93
2023-01-04T01:19:28.619Z,11.75
2023-01-04T01:21:58.555Z,13.10
2023-01-04T01:24:27.229Z,13.00
2023-01-04T01:26:55.794Z,13.43
2023-01-04T01:29:23.482Z,11.60
2023-01-04T01:31:50.980Z,11.82
2023-01-04T01:36:45.312Z,12.48
2023-01-04T01:39:12.716Z,12.07
2023-01-04T01:41:40.005Z,11.77
2023-01-04T01:44:42.643Z,11.77
2023-01-04T01:47:26.992Z,11.48
2023-01-04T01:49:55.335Z,9.90
2023-01-04T01:52:30.739Z,9.02
2023-01-04T01:55:03.882Z,8.93
2023-01-04T01:57:36.480Z,7.80
2023-01-04T02:00:13.577Z,8.50
2023-01-04T02:03:16.232Z,7.03
2023-01-04T02:05:47.287Z,8.10
2023-01-04T02:08:16.685Z,7.15
2023-01-04T02:10:43.840Z,8.40
2023-01-04T02:13:16.975Z,7.50
2023-01-04T02:15:57.031Z,6.40
2023-01-04T02:19:03.667Z,5.97
2023-01-04T02:22:09.897Z,5.80
2023-01-04T02:25:07.559Z,6.22
2023-01-04T02:27:53.823Z,6.00
2023-01-04T02:30:45.588Z,6.57
2023-01-04T02:33:35.386Z,6.72
2023-01-04T02:36:30.230Z,6.13
2023-01-04T02:39:28.376Z,6.05
2023-01-04T02:42:06.594Z,5.60
2023-01-04T02:44:53.692Z,6.22
2023-01-04T02:47:55.781Z,5.13
2023-01-04T02:50:33.193Z,5.95
2023-01-04T02:53:33.858Z,5.97
2023-01-04T02:56:35.781Z,5.47
2023-01-04T02:59:21.565Z,5.13
2023-01-04T03:02:34.140Z,5.47
2023-01-04T03:05:31.952Z,4.45
2023-01-04T03:09:02.092Z,5.15
2023-01-04T03:12:07.574Z,5.43
2023-01-04T03:14:45.517Z,4.88
2023-01-04T03:17:19.901Z,5.07
2023-01-04T03:19:56.836Z,5.25
2023-01-04T03:22:56.543Z,5.70
2023-01-04T03:25:54.470Z,5.65
2023-01-04T03:28:46.871Z,5.30
2023-01-04T03:31:48.362Z,5.20
2023-01-04T03:34:35.127Z,5.35
2023-01-04T03:40:17.327Z,5.13
2023-01-04T03:43:35.896Z,5.43
2023-01-04T03:49:11.035Z,5.53
2023-01-04T03:51:39.523Z,5.10
2023-01-04T03:54:26.269Z,5.30
2023-01-04T03:59:23.850Z,5.32
2023-01-04T04:01:51.702Z,5.22
2023-01-04T04:04:37.732Z,5.43
2023-01-04T04:07:24.027Z,4.53
2023-01-04T04:09:51.335Z,4.60
2023-01-04T04:12:18.633Z,4.65
2023-01-04T04:14:45.768Z,5.55
2023-01-04T04:17:12.931Z,4.40
2023-01-04T04:19:40.090Z,4.68
2023-01-04T04:22:07.224Z,5.45
2023-01-04T04:24:34.381Z,5.03
2023-01-04T04:27:01.656Z,4.15
2023-01-04T04:29:28.807Z,4.07
2023-01-04T04:31:56.098Z,4.35
2023-01-04T04:34:23.314Z,4.22
2023-01-04T04:36:50.496Z,4.28
2023-01-04T04:39:18.373Z,4.25
2023-01-04T04:41:45.690Z,4.10
2023-01-04T04:44:19.333Z,3.97
2023-01-04T04:46:48.930Z,4.13
2023-01-04T04:49:17.711Z,4.10
2023-01-04T04:51:46.883Z,4.22
2023-01-04T04:54:20.941Z,4.35
2023-01-04T04:56:49.910Z,3.88
2023-01-04T04:59:18.101Z,4.13
2023-01-04T05:01:45.600Z,4.13
2023-01-04T05:06:47.420Z,3.55
2023-01-04T05:09:15.793Z,3.53
2023-01-04T05:12:01.912Z,3.42
2023-01-04T05:14:29.410Z,3.47
2023-01-04T05:16:56.711Z,3.83
2023-01-04T05:19:23.918Z,4.13
2023-01-04T05:21:51.076Z,4.53
2023-01-04T05:24:18.374Z,4.53
2023-01-04T05:26:45.564Z,7.32
2023-01-04T05:29:33.769Z,7.25
2023-01-04T05:32:01.071Z,5.40
2023-01-04T05:34:28.358Z,5.10
2023-01-04T05:36:55.545Z,5.72
2023-01-04T05:39:22.814Z,5.07
2023-01-04T05:42:08.894Z,4.53
2023-01-04T05:44:36.187Z,4.32
2023-01-04T05:47:03.355Z,4.75
2023-01-04T05:49:30.504Z,4.75
2023-01-04T05:51:57.704Z,4.53
2023-01-04T05:54:24.846Z,5.20
2023-01-04T05:56:52.048Z,5.75
2023-01-04T05:59:19.182Z,5.95
2023-01-04T06:01:46.458Z,4.25
2023-01-04T06:04:13.888Z,3.58
2023-01-04T06:06:41.156Z,3.97
2023-01-04T06:09:08.386Z,3.95
2023-01-04T06:11:35.524Z,4.00
2023-01-04T06:14:02.664Z,3.83
2023-01-04T06:16:30.412Z,3.75
2023-01-04T06:18:57.603Z,3.50
2023-01-04T06:21:25.648Z,3.83
2023-01-04T06:23:53.642Z,3.45
2023-01-04T06:26:21.601Z,3.95
2023-01-04T06:28:49.066Z,2.85
2023-01-04T06:31:16.311Z,3.38
2023-01-04T06:33:43.671Z,3.55
2023-01-04T06:36:20.045Z,3.47
2023-01-04T06:38:48.304Z,3.67
2023-01-04T06:41:15.854Z,3.55
2023-01-04T06:43:43.150Z,3.47
2023-01-04T06:46:10.481Z,3.78
2023-01-04T06:48:37.670Z,3.92
2023-01-04T06:51:05.125Z,3.47
2023-01-04T06:53:32.370Z,3.75
2023-01-04T06:55:59.572Z,3.97
2023-01-04T06:58:27.661Z,3.80
2023-01-04T07:00:56.454Z,4.25
2023-01-04T07:03:23.812Z,4.57
2023-01-04T07:05:51.245Z,3.70
2023-01-04T07:08:19.597Z,3.80
2023-01-04T07:10:47.251Z,4.70
2023-01-04T07:13:14.613Z,4.00
2023-01-04T07:15:42.436Z,3.97
2023-01-04T07:18:11.093Z,5.47
2023-01-04T07:20:40.025Z,6.28
2023-01-04T07:23:09.458Z,5.47
2023-01-04T07:25:36.881Z,6.25
2023-01-04T07:28:04.480Z,6.35
2023-01-04T07:30:32.215Z,5.20
2023-01-04T07:32:59.827Z,6.07
2023-01-04T07:37:58.743Z,6.18
2023-01-04T07:40:28.147Z,7.55
2023-01-04T07:42:59.814Z,7.97
2023-01-04T07:45:27.759Z,7.50
2023-01-04T07:47:55.053Z,8.90
2023-01-04T07:50:22.299Z,10.15
2023-01-04T07:52:49.500Z,15.45
2023-01-04T07:55:16.850Z,15.10
2023-01-04T07:57:44.050Z,16.42
2023-01-04T08:00:12.395Z,15.75
2023-01-04T08:02:39.668Z,12.02
2023-01-04T08:05:07.278Z,11.18
2023-01-04T08:07:34.467Z,11.18
2023-01-04T08:10:01.900Z,12.27
2023-01-04T08:12:30.023Z,11.27
2023-01-04T08:14:57.444Z,12.43
2023-01-04T08:19:52.767Z,19.02
2023-01-04T08:22:19.986Z,15.57
2023-01-04T08:24:47.158Z,18.52
2023-01-04T08:27:14.270Z,16.70
2023-01-04T08:29:41.444Z,17.80
2023-01-04T08:32:08.555Z,15.15
2023-01-04T08:34:35.740Z,12.65
2023-01-04T08:37:02.883Z,13.35
2023-01-04T08:39:34.169Z,13.00
2023-01-04T08:42:12.616Z,14.50
2023-01-04T08:44:46.257Z,13.93
2023-01-04T08:47:13.479Z,16.05
2023-01-04T08:49:40.695Z,13.63
2023-01-04T08:52:09.389Z,13.73
2023-01-04T08:54:37.118Z,11.98
2023-01-04T08:57:04.440Z,14.23
2023-01-04T08:59:31.578Z,13.73
2023-01-04T09:02:05.189Z,13.70
2023-01-04T09:04:32.785Z,17.10
2023-01-04T09:06:59.986Z,14.95
2023-01-04T09:09:27.355Z,13.00
2023-01-04T09:14:21.556Z,12.65
2023-01-04T09:16:48.748Z,11.95
2023-01-04T09:19:21.685Z,12.63
2023-01-04T09:21:50.431Z,13.95
2023-01-04T09:24:17.715Z,14.57
2023-01-04T09:29:12.177Z,14.45
2023-01-04T09:31:39.396Z,12.48
2023-01-04T09:34:16.612Z,11.20
2023-01-04T09:36:47.182Z,9.15
2023-01-04T09:39:24.440Z,8.40
2023-01-04T09:42:04.174Z,7.32
2023-01-04T09:45:21.191Z,6.22
2023-01-04T09:47:50.761Z,6.57
2023-01-04T09:50:51.163Z,5.22
2023-01-04T09:53:41.577Z,4.75
2023-01-04T09:56:28.515Z,6.38
2023-01-04T09:58:58.311Z,5.72
2023-01-04T10:01:44.181Z,5.68
2023-01-04T10:04:40.458Z,4.97
2023-01-04T10:07:28.531Z,4.90
2023-01-04T10:09:57.131Z,5.43
2023-01-04T10:13:10.040Z,5.25
2023-01-04T10:15:51.713Z,4.80
2023-01-04T10:21:38.480Z,4.00
2023-01-04T10:24:29.951Z,4.45
2023-01-04T10:27:09.324Z,4.63
2023-01-04T10:29:43.145Z,5.22
2023-01-04T10:32:31.768Z,4.55
2023-01-04T10:34:59.061Z,4.85
2023-01-04T10:37:35.587Z,5.57
2023-01-04T10:40:03.332Z,6.13
2023-01-04T10:43:02.190Z,6.00
2023-01-04T10:48:50.558Z,5.68
2023-01-04T10:51:31.841Z,5.90
2023-01-04T10:54:22.874Z,5.68
2023-01-04T10:57:07.088Z,7.90
2023-01-04T11:00:15.669Z,8.95
2023-01-04T11:03:02.213Z,10.85
2023-01-04T11:06:10.490Z,9.48
2023-01-04T11:08:54.961Z,11.52
2023-01-04T11:11:42.615Z,11.32
2023-01-04T11:14:10.901Z,14.70
2023-01-04T11:16:46.572Z,14.35
2023-01-04T11:19:14.987Z,16.20
2023-01-04T11:22:41.384Z,14.70
2023-01-04T11:25:50.340Z,14.10
2023-01-04T11:28:39.172Z,14.68
2023-01-04T11:31:45.638Z,13.80
2023-01-04T11:34:20.827Z,13.43
2023-01-04T11:36:48.606Z,15.30
2023-01-04T11:39:28.872Z,14.70
2023-01-04T11:44:38.773Z,12.60
2023-01-04T11:47:21.160Z,12.60
2023-01-04T11:49:48.982Z,11.73
2023-01-04T11:52:36.582Z,10.60
2023-01-04T11:55:30.532Z,8.57
2023-01-04T11:58:17.417Z,9.30
2023-01-04T12:00:57.758Z,8.50
2023-01-04T12:03:34.594Z,7.85
2023-01-04T12:06:11.318Z,7.50
2023-01-04T12:08:38.613Z,7.30
2023-01-04T12:11:07.023Z,7.72
2023-01-04T12:13:35.491Z,7.13
2023-01-04T12:16:11.407Z,7.80
2023-01-04T12:18:46.758Z,6.82
2023-01-04T12:21:35.369Z,6.50
2023-01-04T12:24:07.660Z,7.82
2023-01-04T12:26:42.801Z,6.00
2023-01-04T12:29:25.377Z,6.80
2023-01-04T12:32:13.959Z,6.40
2023-01-04T12:36:22.355Z,5.97
2023-01-04T12:37:45.959Z,6.60
2023-01-04T12:40:47.271Z,7.00
2023-01-04T12:43:16.953Z,7.30
2023-01-04T12:45:46.572Z,7.05
2023-01-04T12:48:51.837Z,7.32
2023-01-04T12:51:32.281Z,7.50
2023-01-04T12:54:22.364Z,7.15
2023-01-04T12:57:24.363Z,7.20
2023-01-04T13:00:07.316Z,7.50
2023-01-04T13:02:45.269Z,9.30
2023-01-04T13:08:17.209Z,9.20
2023-01-04T13:10:55.527Z,8.90
2023-01-04T13:13:57.406Z,9.27
2023-01-04T13:16:34.789Z,8.35
2023-01-04T13:19:21.434Z,7.43
2023-01-04T13:21:53.768Z,7.40
2023-01-04T13:24:33.152Z,7.40
2023-01-04T13:27:46.258Z,7.20
2023-01-04T13:31:16.575Z,7.10
2023-01-04T13:33:47.540Z,6.30
2023-01-04T13:36:15.252Z,6.85
2023-01-04T13:38:42.640Z,6.85
2023-01-04T13:41:30.850Z,7.93
2023-01-04T13:44:32.993Z,6.85
2023-01-04T13:47:13.379Z,6.65
2023-01-04T13:49:44.822Z,6.95
2023-01-04T13:52:53.066Z,7.97
2023-01-04T13:55:32.085Z,7.60
2023-01-04T13:58:17.793Z,6.85
2023-01-04T14:01:17.160Z,6.90
2023-01-04T14:03:59.252Z,6.30
2023-01-04T14:06:40.238Z,6.10
2023-01-04T14:09:11.253Z,6.10
2023-01-04T14:12:06.329Z,6.75
2023-01-04T14:14:59.286Z,6.88
2023-01-04T14:17:35.677Z,6.65
2023-01-04T14:20:30.041Z,7.45
2023-01-04T14:23:00.256Z,6.90
2023-01-04T14:25:45.200Z,7.57
2023-01-04T14:28:27.480Z,7.20
2023-01-04T14:31:19.502Z,7.25
2023-01-04T14:33:50.471Z,10.15
2023-01-04T14:36:31.284Z,10.05
2023-01-04T14:39:18.709Z,11.73
2023-01-04T14:41:59.827Z,12.02
2023-01-04T14:44:31.196Z,11.52
2023-01-04T14:47:04.163Z,12.35
2023-01-04T14:49:31.838Z,11.55
2023-01-04T14:52:02.939Z,11.40
2023-01-04T14:54:32.015Z,12.32
2023-01-04T14:56:59.847Z,13.45
2023-01-04T14:59:27.228Z,11.52
2023-01-04T15:01:57.333Z,11.05
2023-01-04T15:04:25.636Z,11.50
2023-01-04T15:06:58.886Z,12.45
2023-01-04T15:09:28.082Z,12.35
2023-01-04T15:11:55.663Z,12.68
2023-01-04T15:14:23.878Z,12.93
2023-01-04T15:16:51.243Z,12.98
2023-01-04T15:19:18.448Z,11.02
2023-01-04T15:21:45.830Z,11.07
2023-01-04T15:26:54.047Z,11.23
2023-01-04T15:29:22.108Z,10.38
2023-01-04T15:34:31.094Z,10.07
2023-01-04T15:36:58.483Z,10.43
2023-01-04T15:39:25.959Z,10.77
2023-01-04T15:42:11.745Z,11.10
2023-01-04T15:44:39.029Z,11.18
2023-01-04T15:47:06.474Z,11.45
2023-01-04T15:49:33.839Z,11.13
2023-01-04T15:52:01.317Z,9.77
2023-01-04T15:54:29.711Z,11.43
2023-01-04T15:56:57.085Z,10.40
2023-01-04T15:59:24.857Z,10.20
2023-01-04T16:01:52.446Z,11.10
2023-01-04T16:04:19.841Z,9.50
2023-01-04T16:06:47.045Z,9.40
2023-01-04T16:12:02.651Z,9.73
2023-01-04T16:14:30.301Z,8.80
2023-01-04T16:16:57.953Z,9.35
2023-01-04T16:23:25.373Z,12.05
2023-01-04T16:28:31.423Z,12.10
2023-01-04T16:30:58.843Z,12.00
2023-01-04T16:33:45.056Z,11.43
2023-01-04T16:36:12.362Z,13.15
2023-01-04T16:41:16.755Z,15.35
2023-01-04T16:43:46.884Z,15.52
2023-01-04T16:46:23.373Z,17.15
2023-01-04T16:48:59.103Z,18.52
2023-01-04T16:51:28.974Z,18.75
2023-01-04T16:53:57.116Z,18.58
2023-01-04T16:56:25.498Z,18.10
2023-01-04T16:58:53.061Z,18.17
2023-01-04T17:01:25.950Z,17.35
2023-01-04T17:04:00.779Z,21.50
2023-01-04T17:06:32.209Z,17.88
2023-01-04T17:09:03.463Z,17.40
2023-01-04T17:12:19.284Z,15.88
2023-01-04T17:14:29.904Z,14.30
2023-01-04T17:16:58.220Z,12.13
2023-01-04T17:19:25.837Z,27.55
2023-01-04T17:21:53.663Z,13.75
2023-01-04T17:24:21.015Z,10.65
2023-01-04T17:26:48.425Z,11.27
2023-01-04T17:31:45.952Z,10.18
2023-01-04T17:34:22.610Z,10.45
2023-01-04T17:36:50.808Z,8.90
2023-01-04T17:39:20.865Z,9.82
2023-01-04T17:41:48.170Z,10.32
2023-01-04T17:44:15.589Z,9.02
2023-01-04T17:49:31.739Z,9.02
2023-01-04T17:52:00.221Z,7.90
2023-01-04T17:54:27.547Z,9.18
2023-01-04T17:56:54.944Z,8.77
2023-01-04T17:59:22.383Z,8.95
2023-01-04T18:04:16.880Z,10.07
2023-01-04T18:06:45.497Z,12.75
2023-01-04T18:09:15.568Z,13.15
2023-01-04T18:11:45.735Z,9.10
2023-01-04T18:14:14.602Z,7.32
2023-01-04T18:16:58.271Z,8.10
2023-01-04T18:19:31.005Z,7.60
2023-01-04T18:21:59.031Z,7.68
2023-01-04T18:24:42.146Z,9.32
2023-01-04T18:27:22.628Z,7.45
2023-01-04T18:29:53.344Z,9.13
2023-01-04T18:32:22.229Z,9.90
2023-01-04T18:34:49.554Z,9.45
2023-01-04T18:37:19.104Z,9.27
2023-01-04T18:39:48.269Z,10.50
2023-01-04T18:42:15.949Z,10.10
2023-01-04T18:44:48.397Z,10.05
2023-01-04T18:47:20.286Z,8.98
2023-01-04T18:49:48.998Z,9.48
2023-01-04T18:52:18.325Z,9.90
2023-01-04T18:54:48.032Z,9.15
2023-01-04T18:57:17.884Z,8.63
2023-01-04T18:59:50.014Z,9.48
2023-01-04T19:02:20.965Z,9.48
2023-01-04T19:04:48.837Z,10.40
2023-01-04T19:07:16.054Z,11.15
2023-01-04T19:09:43.519Z,11.88
2023-01-04T19:14:38.406Z,10.55
2023-01-04T19:17:05.687Z,11.15
2023-01-04T19:19:34.028Z,11.88
2023-01-04T19:22:14.149Z,13.95
2023-01-04T19:24:42.433Z,12.70
2023-01-04T19:27:12.207Z,11.95
2023-01-04T19:29:39.468Z,12.88
2023-01-04T19:32:06.981Z,12.60
2023-01-04T19:37:01.332Z,9.43
2023-01-04T19:39:28.586Z,13.48
2023-01-04T19:41:56.401Z,11.75
2023-01-04T19:44:23.758Z,13.57
2023-01-04T19:46:50.982Z,13.07
2023-01-04T19:49:18.698Z,12.48
2023-01-04T19:51:47.387Z,13.02
2023-01-04T19:54:19.858Z,14.23
2023-01-04T19:56:51.945Z,11.82
2023-01-04T19:59:19.361Z,12.15
2023-01-04T20:01:46.826Z,11.98
2023-01-04T20:04:15.299Z,13.00
2023-01-04T20:06:42.572Z,11.43
2023-01-04T20:09:10.462Z,12.98
2023-01-04T20:11:37.712Z,9.57
2023-01-04T20:14:05.092Z,11.02
2023-01-04T20:16:32.456Z,11.70
2023-01-04T20:18:59.755Z,10.68
2023-01-04T20:21:27.129Z,11.43
2023-01-04T20:23:54.410Z,11.10
2023-01-04T20:26:25.443Z,13.25
2023-01-04T20:28:52.882Z,9.32
2023-01-04T20:31:21.030Z,9.50
2023-01-04T20:33:48.902Z,9.55
2023-01-04T20:36:21.202Z,8.68
2023-01-04T20:38:50.459Z,9.02
2023-01-04T20:41:22.771Z,9.48
2023-01-04T20:43:51.300Z,8.77
2023-01-04T20:46:24.698Z,8.98
2023-01-04T20:48:55.228Z,9.27
2023-01-04T20:51:26.480Z,10.80
2023-01-04T20:53:55.213Z,11.48
2023-01-04T20:56:26.860Z,9.85
2023-01-04T20:58:55.211Z,9.48
2023-01-04T21:01:26.726Z,10.07
2023-01-04T21:03:54.321Z,8.48
2023-01-04T21:06:25.563Z,8.68
2023-01-04T21:09:01.958Z,8.04
2023-01-04T21:11:30.003Z,8.43
2023-01-04T21:13:57.820Z,8.15
2023-01-04T21:16:25.407Z,8.65
2023-01-04T21:21:20.949Z,8.40
2023-01-04T21:23:51.802Z,16.48
2023-01-04T21:26:26.518Z,11.00
2023-01-04T21:28:54.367Z,10.63
2023-01-04T21:31:24.871Z,9.50
2023-01-04T21:33:54.806Z,9.10
2023-01-04T21:36:27.279Z,14.40
2023-01-04T21:38:58.830Z,7.88
2023-01-04T21:41:27.133Z,8.85
2023-01-04T21:43:57.950Z,9.15
2023-01-04T21:46:27.416Z,9.95
2023-01-04T21:49:00.003Z,8.18
2023-01-04T21:51:30.856Z,9.70
2023-01-04T21:53:59.390Z,9.90
2023-01-04T21:56:26.736Z,9.30
2023-01-04T21:58:54.446Z,16.02
2023-01-04T22:01:30.953Z,11.25
2023-01-04T22:04:02.613Z,9.90
2023-01-04T22:06:30.609Z,20.60
2023-01-04T22:08:58.984Z,15.50
2023-01-04T22:11:26.242Z,41.88
2023-01-04T22:13:53.693Z,23.77
2023-01-04T22:16:21.129Z,9.27
2023-01-04T22:18:49.686Z,9.63
2023-01-04T22:21:22.379Z,10.88
2023-01-04T22:23:51.241Z,8.25
2023-01-04T22:26:18.540Z,6.72
2023-01-04T22:28:46.739Z,6.45
2023-01-04T22:31:15.704Z,8.13
2023-01-04T22:33:43.799Z,6.45
2023-01-04T22:36:22.209Z,7.20
2023-01-04T22:38:52.610Z,7.15
2023-01-04T22:41:23.933Z,6.20
2023-01-04T22:44:01.352Z,8.20
2023-01-04T22:46:30.555Z,6.22
2023-01-04T22:48:59.849Z,6.00
2023-01-04T22:51:29.746Z,7.53
2023-01-04T22:54:01.457Z,9.63
2023-01-04T22:56:29.902Z,8.50
2023-01-04T22:58:58.971Z,9.20
2023-01-04T23:01:32.448Z,9.45
2023-01-04T23:04:01.868Z,6.30
2023-01-04T23:06:31.616Z,6.90
2023-01-04T23:09:03.588Z,15.27
2023-01-04T23:11:36.515Z,8.82
2023-01-04T23:14:16.273Z,8.05
2023-01-04T23:16:45.286Z,9.07
2023-01-04T23:19:13.940Z,7.95
2023-01-04T23:21:42.165Z,8.35
2023-01-04T23:24:15.797Z,9.07
2023-01-04T23:26:44.745Z,10.45
2023-01-04T23:29:12.232Z,9.55
2023-01-04T23:31:40.037Z,10.85
2023-01-04T23:34:13.092Z,16.48
2023-01-04T23:36:42.503Z,10.60
2023-01-04T23:39:14.865Z,9.50
2023-01-04T23:41:46.276Z,10.23
2023-01-04T23:44:25.484Z,8.38
2023-01-04T23:46:57.782Z,11.10
2023-01-04T23:49:28.359Z,10.63
2023-01-04T23:51:56.109Z,9.82
2023-01-04T23:54:24.139Z,8.52
2023-01-04T23:56:52.747Z,8.77
2023-01-04T23:59:21.837Z,10.15
